createdAt,value
2023-02-06T00:00:43.204Z,4.77
2023-02-06T00:03:12.616Z,4.99
2023-02-06T00:05:40.499Z,5.21
2023-02-06T00:08:10.844Z,5.25
2023-02-06T00:10:38.980Z,5.49
2023-02-06T00:13:10.001Z,5.26
2023-02-06T00:15:39.721Z,5.24
2023-02-06T00:18:10.125Z,5.49
2023-02-06T00:20:38.450Z,5.24
2023-02-06T00:23:07.775Z,5.14
2023-02-06T00:25:36.878Z,5.07
2023-02-06T00:28:05.623Z,5.19
2023-02-06T00:30:33.800Z,4.99
2023-02-06T00:33:14.209Z,5.57
2023-02-06T00:35:42.186Z,5.32
2023-02-06T00:38:11.913Z,5.45
2023-02-06T00:40:42.629Z,5.41
2023-02-06T00:43:10.403Z,5.35
2023-02-06T00:45:40.686Z,5.15
2023-02-06T00:48:10.379Z,5.19
2023-02-06T00:50:38.454Z,5.18
2023-02-06T00:53:08.793Z,5.31
2023-02-06T00:55:36.880Z,5.30
2023-02-06T00:58:11.394Z,5.02
2023-02-06T01:00:39.251Z,5.47
2023-02-06T01:03:06.998Z,5.43
2023-02-06T01:05:36.590Z,5.29
2023-02-06T01:08:04.948Z,5.29
2023-02-06T01:10:33.030Z,4.56
2023-02-06T01:13:06.257Z,5.26
2023-02-06T01:15:37.761Z,5.08
2023-02-06T01:18:08.717Z,5.17
2023-02-06T01:20:38.175Z,5.22
2023-02-06T01:23:08.266Z,5.47
2023-02-06T01:25:38.533Z,5.39
2023-02-06T01:28:06.454Z,5.47
2023-02-06T01:30:38.502Z,5.39
2023-02-06T01:33:08.790Z,5.42
2023-02-06T01:35:40.744Z,5.67
2023-02-06T01:38:14.348Z,5.34
2023-02-06T01:40:44.713Z,5.41
2023-02-06T01:43:22.235Z,5.17
2023-02-06T01:45:50.005Z,5.26
2023-02-06T01:48:21.239Z,4.96
2023-02-06T01:50:53.719Z,5.15
2023-02-06T01:53:22.240Z,4.82
2023-02-06T01:55:52.724Z,4.71
2023-02-06T01:58:25.899Z,4.46
2023-02-06T02:00:55.058Z,4.22
2023-02-06T02:03:23.317Z,4.30
2023-02-06T02:05:53.281Z,4.35
2023-02-06T02:08:23.512Z,3.99
2023-02-06T02:10:51.638Z,4.46
2023-02-06T02:13:21.168Z,4.30
2023-02-06T02:16:02.530Z,4.41
2023-02-06T02:18:49.233Z,4.70
2023-02-06T02:21:41.516Z,4.74
2023-02-06T02:24:18.211Z,4.57
2023-02-06T02:27:08.680Z,4.90
2023-02-06T02:30:29.137Z,4.80
2023-02-06T02:33:38.480Z,5.29
2023-02-06T02:36:15.453Z,5.08
2023-02-06T02:38:54.275Z,5.29
2023-02-06T02:41:27.247Z,5.12
2023-02-06T02:43:59.781Z,5.15
2023-02-06T02:46:31.589Z,5.51
2023-02-06T02:49:04.459Z,5.55
2023-02-06T02:51:35.075Z,5.32
2023-02-06T02:54:03.782Z,5.36
2023-02-06T02:56:38.742Z,5.12
2023-02-06T02:59:13.083Z,5.04
2023-02-06T03:01:43.690Z,5.26
2023-02-06T03:04:14.278Z,5.24
2023-02-06T03:07:09.215Z,5.37
2023-02-06T03:09:49.602Z,5.42
2023-02-06T03:12:22.385Z,5.74
2023-02-06T03:14:59.317Z,5.64
2023-02-06T03:17:34.745Z,6.10
2023-02-06T03:20:07.817Z,6.38
2023-02-06T03:22:38.172Z,5.96
2023-02-06T03:25:10.042Z,6.12
2023-02-06T03:27:42.562Z,6.07
2023-02-06T03:30:14.144Z,6.03
2023-02-06T03:32:45.449Z,5.95
2023-02-06T03:35:19.541Z,5.92
2023-02-06T03:37:53.595Z,5.74
2023-02-06T03:40:21.816Z,5.75
2023-02-06T03:42:53.616Z,5.64
2023-02-06T03:45:24.257Z,5.53
2023-02-06T03:47:57.541Z,5.39
2023-02-06T03:50:30.362Z,5.50
2023-02-06T03:53:04.493Z,5.24
2023-02-06T03:55:40.499Z,5.12
2023-02-06T03:58:24.634Z,5.05
2023-02-06T04:00:53.153Z,5.19
2023-02-06T04:03:23.179Z,4.99
2023-02-06T04:05:51.060Z,3.01
2023-02-06T04:08:24.478Z,4.64
2023-02-06T04:10:52.394Z,4.73
2023-02-06T04:13:24.946Z,4.56
2023-02-06T04:15:53.102Z,4.03
2023-02-06T04:18:22.479Z,4.96
2023-02-06T04:20:53.361Z,5.06
2023-02-06T04:23:26.391Z,5.09
2023-02-06T04:25:57.336Z,4.85
2023-02-06T04:28:26.397Z,5.09
2023-02-06T04:30:55.779Z,4.85
2023-02-06T04:33:30.261Z,4.75
2023-02-06T04:36:00.243Z,4.88
2023-02-06T04:38:32.564Z,4.73
2023-02-06T04:41:03.886Z,4.75
2023-02-06T04:43:32.060Z,4.81
2023-02-06T04:46:03.143Z,5.22
2023-02-06T04:48:34.327Z,4.81
2023-02-06T04:51:04.937Z,5.04
2023-02-06T04:53:34.847Z,5.19
2023-02-06T04:56:03.611Z,5.12
2023-02-06T04:58:32.792Z,5.04
2023-02-06T05:01:00.696Z,4.74
2023-02-06T05:03:29.705Z,4.68
2023-02-06T05:06:03.614Z,4.80
2023-02-06T05:08:32.543Z,4.87
2023-02-06T05:11:02.345Z,4.82
2023-02-06T05:13:30.573Z,4.73
2023-02-06T05:16:01.527Z,4.73
2023-02-06T05:18:33.269Z,4.73
2023-02-06T05:21:01.143Z,4.61
2023-02-06T05:23:29.015Z,4.71
2023-02-06T05:25:57.250Z,4.66
2023-02-06T05:28:33.667Z,4.44
2023-02-06T05:31:02.886Z,4.28
2023-02-06T05:33:33.780Z,4.23
2023-02-06T05:36:07.858Z,4.33
2023-02-06T05:38:38.365Z,4.65
2023-02-06T05:41:18.920Z,4.19
2023-02-06T05:43:49.315Z,4.72
2023-02-06T05:46:19.518Z,4.62
2023-02-06T05:48:47.400Z,4.70
2023-02-06T05:51:15.280Z,4.74
2023-02-06T05:53:43.726Z,4.63
2023-02-06T05:56:15.642Z,4.03
2023-02-06T05:58:44.333Z,4.96
2023-02-06T06:01:13.954Z,4.87
2023-02-06T06:03:43.818Z,4.68
2023-02-06T06:06:14.797Z,4.95
2023-02-06T06:08:45.835Z,4.98
2023-02-06T06:11:16.358Z,4.67
2023-02-06T06:13:47.679Z,4.65
2023-02-06T06:16:20.887Z,4.74
2023-02-06T06:18:56.102Z,4.80
2023-02-06T06:21:24.193Z,4.84
2023-02-06T06:24:03.074Z,4.86
2023-02-06T06:26:32.071Z,4.60
2023-02-06T06:29:06.002Z,4.19
2023-02-06T06:31:47.478Z,4.93
2023-02-06T06:34:19.498Z,5.02
2023-02-06T06:36:54.331Z,4.88
2023-02-06T06:39:25.648Z,4.83
2023-02-06T06:41:56.468Z,4.96
2023-02-06T06:44:24.560Z,5.01
2023-02-06T06:46:56.468Z,4.78
2023-02-06T06:49:28.976Z,5.11
2023-02-06T06:51:56.892Z,5.00
2023-02-06T06:54:27.748Z,4.78
2023-02-06T06:56:56.672Z,4.86
2023-02-06T06:59:25.723Z,5.06
2023-02-06T07:01:57.435Z,4.93
2023-02-06T07:04:34.583Z,5.06
2023-02-06T07:07:05.305Z,5.35
2023-02-06T07:09:33.446Z,5.52
2023-02-06T07:12:02.032Z,5.31
2023-02-06T07:14:29.823Z,5.24
2023-02-06T07:17:05.101Z,5.12
2023-02-06T07:19:32.994Z,4.93
2023-02-06T07:22:00.958Z,4.96
2023-02-06T07:24:34.875Z,4.95
2023-02-06T07:27:03.034Z,5.04
2023-02-06T07:29:34.035Z,4.96
2023-02-06T07:32:03.676Z,4.94
2023-02-06T07:34:33.021Z,5.18
2023-02-06T07:37:01.364Z,5.20
2023-02-06T07:39:31.288Z,4.90
2023-02-06T07:42:01.293Z,5.00
2023-02-06T07:44:29.361Z,5.15
2023-02-06T07:47:01.166Z,4.90
2023-02-06T07:49:30.508Z,5.13
2023-02-06T07:52:01.315Z,4.97
2023-02-06T07:54:31.722Z,4.98
2023-02-06T07:57:01.120Z,4.94
2023-02-06T07:59:29.476Z,4.97
2023-02-06T08:02:01.148Z,4.99
2023-02-06T08:04:35.360Z,5.08
2023-02-06T08:07:03.620Z,4.97
2023-02-06T08:09:33.463Z,5.32
2023-02-06T08:12:02.376Z,5.44
2023-02-06T08:14:32.934Z,5.61
2023-02-06T08:17:04.174Z,5.80
2023-02-06T08:19:36.508Z,6.04
2023-02-06T08:22:04.849Z,6.00
2023-02-06T08:24:38.059Z,5.85
2023-02-06T08:27:09.929Z,5.71
2023-02-06T08:29:42.574Z,5.53
2023-02-06T08:32:11.193Z,5.46
2023-02-06T08:34:41.676Z,5.91
2023-02-06T08:37:09.948Z,5.82
2023-02-06T08:39:40.465Z,5.36
2023-02-06T08:42:11.117Z,5.47
2023-02-06T08:44:39.259Z,5.43
2023-02-06T08:47:10.424Z,5.44
2023-02-06T08:49:42.099Z,5.24
2023-02-06T08:52:11.994Z,5.47
2023-02-06T08:54:43.037Z,5.51
2023-02-06T08:57:24.467Z,4.89
2023-02-06T08:59:53.028Z,4.83
2023-02-06T09:02:20.989Z,4.54
2023-02-06T09:04:50.272Z,4.66
2023-02-06T09:07:18.279Z,4.53
2023-02-06T09:09:48.986Z,4.59
2023-02-06T09:12:17.265Z,4.62
2023-02-06T09:14:46.472Z,4.62
2023-02-06T09:17:14.431Z,4.80
2023-02-06T09:19:50.526Z,4.99
2023-02-06T09:22:20.187Z,5.18
2023-02-06T09:24:52.485Z,5.19
2023-02-06T09:27:22.810Z,5.38
2023-02-06T09:29:51.022Z,5.59
2023-02-06T09:32:20.914Z,5.55
2023-02-06T09:34:51.817Z,5.21
2023-02-06T09:37:23.639Z,5.17
2023-02-06T09:39:54.636Z,5.25
2023-02-06T09:42:28.083Z,5.18
2023-02-06T09:45:02.952Z,5.21
2023-02-06T09:47:36.241Z,5.42
2023-02-06T09:50:20.972Z,4.89
2023-02-06T09:53:02.810Z,5.78
2023-02-06T09:58:25.495Z,5.01
2023-02-06T10:00:59.548Z,5.44
2023-02-06T10:03:45.287Z,5.40
2023-02-06T10:06:21.341Z,5.40
2023-02-06T10:09:00.427Z,5.35
2023-02-06T10:11:38.964Z,5.87
2023-02-06T10:14:12.968Z,5.87
2023-02-06T10:16:47.070Z,5.76
2023-02-06T10:19:17.177Z,6.13
2023-02-06T10:21:48.723Z,5.59
2023-02-06T10:24:30.028Z,6.13
2023-02-06T10:27:01.441Z,5.85
2023-02-06T10:29:31.133Z,6.04
2023-02-06T10:32:31.826Z,5.84
2023-02-06T10:35:28.775Z,5.88
2023-02-06T10:38:20.007Z,5.79
2023-02-06T10:40:53.879Z,5.70
2023-02-06T10:43:30.401Z,5.56
2023-02-06T10:46:05.200Z,5.70
2023-02-06T10:48:37.192Z,5.80
2023-02-06T10:51:18.819Z,5.23
2023-02-06T10:53:52.250Z,5.08
2023-02-06T10:56:24.787Z,5.27
2023-02-06T10:58:58.226Z,5.19
2023-02-06T11:01:33.500Z,5.35
2023-02-06T11:04:05.959Z,5.36
2023-02-06T11:06:37.494Z,5.66
2023-02-06T11:09:05.724Z,5.59
2023-02-06T11:11:39.194Z,6.02
2023-02-06T11:14:18.229Z,6.03
2023-02-06T11:16:48.228Z,5.56
2023-02-06T11:19:27.257Z,5.84
2023-02-06T11:22:12.548Z,5.96
2023-02-06T11:27:38.698Z,5.95
2023-02-06T11:30:10.225Z,6.09
2023-02-06T11:33:03.489Z,6.16
2023-02-06T11:35:41.560Z,5.91
2023-02-06T11:38:17.199Z,6.22
2023-02-06T11:40:45.571Z,6.22
2023-02-06T11:43:24.854Z,5.70
2023-02-06T11:46:09.922Z,6.08
2023-02-06T11:48:41.146Z,5.80
2023-02-06T11:51:16.990Z,5.73
2023-02-06T11:54:06.755Z,6.04
2023-02-06T11:56:37.430Z,6.22
2023-02-06T11:59:09.199Z,5.70
2023-02-06T12:01:48.249Z,5.56
2023-02-06T12:04:24.159Z,5.87
2023-02-06T12:06:57.992Z,5.57
2023-02-06T12:09:29.400Z,5.73
2023-02-06T12:12:04.259Z,5.45
2023-02-06T12:14:39.404Z,5.49
2023-02-06T12:17:20.223Z,4.83
2023-02-06T12:19:52.793Z,4.51
2023-02-06T12:22:28.122Z,5.00
2023-02-06T12:25:06.546Z,5.16
2023-02-06T12:27:39.813Z,5.33
2023-02-06T12:30:28.833Z,5.34
2023-02-06T12:33:02.066Z,5.05
2023-02-06T12:35:37.434Z,5.38
2023-02-06T12:38:10.869Z,5.28
2023-02-06T12:40:44.686Z,5.26
2023-02-06T12:43:19.764Z,5.20
2023-02-06T12:45:54.119Z,5.08
2023-02-06T12:48:31.456Z,4.99
2023-02-06T12:51:11.932Z,4.93
2023-02-06T12:53:42.784Z,5.08
2023-02-06T12:56:21.549Z,5.13
2023-02-06T12:58:54.548Z,5.28
2023-02-06T13:01:36.241Z,5.14
2023-02-06T13:04:05.499Z,5.23
2023-02-06T13:06:43.675Z,5.08
2023-02-06T13:09:22.619Z,5.15
2023-02-06T13:11:56.104Z,4.99
2023-02-06T13:14:31.167Z,5.25
2023-02-06T13:17:13.247Z,5.30
2023-02-06T13:20:05.089Z,5.57
2023-02-06T13:22:46.684Z,5.71
2023-02-06T13:25:56.252Z,5.59
2023-02-06T13:29:04.290Z,5.75
2023-02-06T13:31:34.578Z,5.55
2023-02-06T13:34:08.516Z,5.37
2023-02-06T13:36:58.300Z,5.23
2023-02-06T13:39:29.788Z,5.37
2023-02-06T13:42:05.164Z,4.88
2023-02-06T13:44:36.516Z,4.99
2023-02-06T13:47:29.745Z,5.20
2023-02-06T13:50:30.056Z,5.13
2023-02-06T13:53:36.005Z,5.31
2023-02-06T13:56:14.348Z,5.55
2023-02-06T13:58:47.696Z,5.37
2023-02-06T14:01:20.317Z,5.28
2023-02-06T14:03:52.498Z,5.12
2023-02-06T14:07:03.234Z,5.22
2023-02-06T14:09:45.480Z,5.17
2023-02-06T14:12:35.592Z,5.47
2023-02-06T14:15:17.029Z,5.62
2023-02-06T14:18:11.677Z,5.74
2023-02-06T14:20:50.355Z,5.44
2023-02-06T14:23:30.617Z,5.32
2023-02-06T14:26:17.184Z,5.08
2023-02-06T14:28:56.188Z,5.35
2023-02-06T14:31:36.415Z,5.47
2023-02-06T14:34:20.240Z,5.74
2023-02-06T14:37:11.007Z,5.41
2023-02-06T14:39:50.674Z,5.48
2023-02-06T14:42:22.564Z,5.18
2023-02-06T14:44:55.168Z,5.06
2023-02-06T14:47:43.390Z,3.40
2023-02-06T14:50:21.720Z,5.31
2023-02-06T14:52:56.331Z,5.52
2023-02-06T14:55:36.099Z,5.28
2023-02-06T14:58:07.737Z,5.46
2023-02-06T15:00:36.402Z,5.63
2023-02-06T15:03:08.134Z,5.55
2023-02-06T15:05:37.033Z,5.62
2023-02-06T15:08:07.262Z,5.31
2023-02-06T15:10:39.928Z,5.90
2023-02-06T15:13:07.940Z,5.73
2023-02-06T15:15:39.137Z,5.60
2023-02-06T15:18:08.992Z,5.39
2023-02-06T15:20:44.098Z,5.65
2023-02-06T15:23:18.367Z,5.78
2023-02-06T15:26:07.356Z,5.71
2023-02-06T15:28:39.801Z,5.64
2023-02-06T15:31:17.959Z,5.34
2023-02-06T15:33:50.944Z,5.22
2023-02-06T15:36:26.400Z,5.84
2023-02-06T15:38:54.341Z,5.62
2023-02-06T15:41:24.508Z,5.59
2023-02-06T15:43:56.770Z,5.46
2023-02-06T15:46:25.135Z,5.34
2023-02-06T15:48:55.536Z,5.23
2023-02-06T15:51:31.030Z,5.31
2023-02-06T15:54:16.923Z,5.53
2023-02-06T15:56:59.286Z,5.56
2023-02-06T15:59:28.403Z,3.74
2023-02-06T16:01:59.584Z,5.17
2023-02-06T16:04:31.240Z,5.08
2023-02-06T16:07:02.228Z,4.81
2023-02-06T16:09:36.335Z,5.31
2023-02-06T16:12:09.843Z,5.23
2023-02-06T16:14:40.203Z,5.48
2023-02-06T16:17:32.214Z,5.64
2023-02-06T16:20:07.343Z,5.89
2023-02-06T16:22:39.306Z,5.89
2023-02-06T16:25:16.501Z,5.86
2023-02-06T16:27:49.007Z,6.11
2023-02-06T16:30:28.490Z,6.62
2023-02-06T16:33:00.197Z,6.33
2023-02-06T16:35:28.435Z,6.76
2023-02-06T16:37:57.868Z,6.73
2023-02-06T16:40:30.025Z,6.51
2023-02-06T16:43:02.072Z,6.77
2023-02-06T16:45:29.918Z,6.70
2023-02-06T16:47:58.543Z,6.69
2023-02-06T16:50:28.128Z,6.67
2023-02-06T16:53:04.095Z,6.51
2023-02-06T16:55:32.245Z,6.41
2023-02-06T16:58:02.233Z,6.15
2023-02-06T17:00:32.382Z,6.36
2023-02-06T17:03:01.983Z,6.36
2023-02-06T17:05:31.654Z,6.03
2023-02-06T17:08:04.275Z,6.49
2023-02-06T17:10:37.813Z,6.32
2023-02-06T17:13:14.243Z,6.61
2023-02-06T17:15:47.139Z,6.46
2023-02-06T17:18:18.369Z,6.55
2023-02-06T17:20:51.801Z,6.79
2023-02-06T17:23:22.272Z,7.18
2023-02-06T17:25:52.463Z,7.25
2023-02-06T17:28:22.352Z,7.51
2023-02-06T17:31:00.732Z,7.39
2023-02-06T17:33:29.351Z,7.60
2023-02-06T17:35:58.125Z,7.31
2023-02-06T17:38:26.487Z,7.06
2023-02-06T17:40:56.857Z,6.95
2023-02-06T17:43:33.845Z,6.76
2023-02-06T17:46:03.397Z,6.70
2023-02-06T17:48:36.442Z,6.63
2023-02-06T17:51:05.894Z,6.66
2023-02-06T17:53:34.473Z,6.60
2023-02-06T17:56:14.032Z,6.61
2023-02-06T17:58:46.458Z,6.72
2023-02-06T18:01:15.601Z,6.79
2023-02-06T18:03:47.944Z,6.89
2023-02-06T18:06:16.367Z,6.83
2023-02-06T18:08:44.982Z,6.65
2023-02-06T18:11:19.246Z,6.26
2023-02-06T18:13:54.026Z,6.53
2023-02-06T18:16:26.424Z,6.66
2023-02-06T18:18:54.704Z,6.75
2023-02-06T18:21:24.590Z,6.27
2023-02-06T18:23:55.068Z,6.59
2023-02-06T18:26:24.380Z,6.62
2023-02-06T18:28:55.091Z,6.63
2023-02-06T18:31:27.079Z,6.44
2023-02-06T18:33:55.365Z,6.59
2023-02-06T18:36:24.965Z,6.45
2023-02-06T18:38:53.782Z,6.17
2023-02-06T18:41:42.769Z,6.57
2023-02-06T18:44:12.554Z,6.51
2023-02-06T18:46:41.531Z,6.31
2023-02-06T18:49:11.728Z,6.22
2023-02-06T18:51:48.856Z,6.23
2023-02-06T18:54:16.772Z,5.96
2023-02-06T18:56:45.547Z,5.98
2023-02-06T18:59:15.570Z,5.82
2023-02-06T19:01:48.865Z,5.61
2023-02-06T19:04:16.824Z,5.60
2023-02-06T19:06:45.916Z,4.87
2023-02-06T19:09:14.298Z,5.62
2023-02-06T19:11:47.391Z,5.80
2023-02-06T19:14:19.913Z,5.50
2023-02-06T19:16:48.986Z,5.89
2023-02-06T19:19:21.060Z,6.01
2023-02-06T19:21:49.075Z,5.79
2023-02-06T19:24:20.306Z,5.69
2023-02-06T19:26:48.315Z,5.63
2023-02-06T19:29:34.425Z,5.70
2023-02-06T19:32:03.777Z,5.69
2023-02-06T19:34:38.277Z,5.57
2023-02-06T19:37:07.128Z,5.54
2023-02-06T19:39:42.665Z,5.26
2023-02-06T19:42:18.114Z,4.59
2023-02-06T19:44:48.202Z,4.62
2023-02-06T19:47:20.191Z,4.30
2023-02-06T19:49:52.954Z,4.42
2023-02-06T19:52:21.453Z,4.50
2023-02-06T19:54:52.514Z,4.50
2023-02-06T19:57:20.457Z,4.41
2023-02-06T19:59:49.758Z,4.32
2023-02-06T20:02:20.578Z,4.26
2023-02-06T20:04:53.024Z,4.34
2023-02-06T20:07:22.266Z,4.12
2023-02-06T20:09:51.178Z,3.95
2023-02-06T20:12:19.289Z,-2.35
2023-02-06T20:14:48.529Z,3.70
2023-02-06T20:17:19.918Z,3.75
2023-02-06T20:19:50.064Z,3.27
2023-02-06T20:22:24.004Z,3.19
2023-02-06T20:24:56.734Z,3.11
2023-02-06T20:27:24.773Z,3.33
2023-02-06T20:29:55.129Z,3.44
2023-02-06T20:32:26.093Z,3.39
2023-02-06T20:34:57.819Z,3.34
2023-02-06T20:37:26.524Z,3.24
2023-02-06T20:39:57.304Z,2.72
2023-02-06T20:42:28.888Z,2.71
2023-02-06T20:44:57.241Z,2.94
2023-02-06T20:47:41.506Z,2.91
2023-02-06T20:50:10.382Z,2.51
2023-02-06T20:52:38.377Z,2.91
2023-02-06T20:55:09.106Z,2.89
2023-02-06T20:57:37.349Z,3.05
2023-02-06T21:00:05.983Z,2.81
2023-02-06T21:02:38.210Z,2.76
2023-02-06T21:05:06.426Z,2.92
2023-02-06T21:07:34.650Z,2.90
2023-02-06T21:10:03.495Z,2.82
2023-02-06T21:12:31.523Z,2.51
2023-02-06T21:15:00.001Z,2.56
2023-02-06T21:17:30.056Z,2.73
2023-02-06T21:19:59.314Z,3.08
2023-02-06T21:22:32.053Z,2.74
2023-02-06T21:25:05.284Z,3.17
2023-02-06T21:27:33.955Z,3.00
2023-02-06T21:30:02.556Z,3.01
2023-02-06T21:32:33.259Z,3.36
2023-02-06T21:35:02.520Z,3.31
2023-02-06T21:37:33.488Z,3.09
2023-02-06T21:40:05.016Z,2.94
2023-02-06T21:42:33.047Z,2.60
2023-02-06T21:45:01.216Z,2.50
2023-02-06T21:47:29.080Z,2.87
2023-02-06T21:49:59.943Z,2.78
2023-02-06T21:52:29.185Z,2.81
2023-02-06T21:55:01.938Z,2.72
2023-02-06T21:57:29.865Z,2.95
2023-02-06T22:00:00.355Z,2.78
2023-02-06T22:02:34.014Z,2.28
2023-02-06T22:05:05.228Z,2.95
2023-02-06T22:07:42.126Z,2.87
2023-02-06T22:10:10.951Z,2.78
2023-02-06T22:12:41.360Z,2.98
2023-02-06T22:15:10.363Z,2.84
2023-02-06T22:17:43.566Z,2.93
2023-02-06T22:20:16.288Z,2.12
2023-02-06T22:22:46.936Z,2.59
2023-02-06T22:25:14.844Z,2.59
2023-02-06T22:27:43.506Z,2.77
2023-02-06T22:30:16.614Z,2.66
2023-02-06T22:32:46.739Z,2.65
2023-02-06T22:35:17.200Z,2.47
2023-02-06T22:37:55.368Z,3.01
2023-02-06T22:40:23.193Z,2.96
2023-02-06T22:42:58.284Z,3.08
2023-02-06T22:45:32.159Z,3.12
2023-02-06T22:48:09.231Z,2.89
2023-02-06T22:50:37.221Z,2.90
2023-02-06T22:53:25.360Z,3.04
2023-02-06T22:56:10.502Z,2.84
2023-02-06T22:58:41.018Z,2.52
2023-02-06T23:01:09.187Z,1.90
2023-02-06T23:03:38.316Z,2.23
2023-02-06T23:06:10.307Z,2.22
2023-02-06T23:08:41.415Z,2.56
2023-02-06T23:11:10.710Z,2.51
2023-02-06T23:13:41.087Z,2.49
2023-02-06T23:16:15.918Z,2.32
2023-02-06T23:18:48.248Z,2.05
2023-02-06T23:21:17.045Z,2.38
2023-02-06T23:23:46.346Z,2.40
2023-02-06T23:26:19.468Z,2.09
2023-02-06T23:28:48.350Z,2.38
2023-02-06T23:31:22.466Z,2.04
2023-02-06T23:33:56.127Z,2.20
2023-02-06T23:36:26.196Z,2.05
2023-02-06T23:38:58.712Z,2.01
2023-02-06T23:41:29.174Z,2.04
2023-02-06T23:43:58.564Z,2.14
2023-02-06T23:46:30.810Z,2.16
2023-02-06T23:49:03.546Z,2.21
2023-02-06T23:51:32.613Z,2.13
2023-02-06T23:54:08.479Z,2.04
2023-02-06T23:56:37.057Z,2.05
